地図

経路データ

SID SEASON NUMBER BASIN SUBBASIN NAME ISO_TIME NATURE LAT LON WMO_WIND WMO_PRES WMO_AGENCY TRACK_TYPE DIST2LAND LANDFALL IFLAG USA_AGENCY USA_ATCF_ID USA_LAT USA_LON USA_RECORD USA_STATUS USA_WIND USA_PRES USA_SSHS USA_R34_NE USA_R34_SE USA_R34_SW USA_R34_NW USA_R50_NE USA_R50_SE USA_R50_SW USA_R50_NW USA_R64_NE USA_R64_SE USA_R64_SW USA_R64_NW USA_POCI USA_ROCI USA_RMW USA_EYE TOKYO_LAT TOKYO_LON TOKYO_GRADE TOKYO_WIND TOKYO_PRES TOKYO_R50_DIR TOKYO_R50_LONG TOKYO_R50_SHORT TOKYO_R30_DIR TOKYO_R30_LONG TOKYO_R30_SHORT TOKYO_LAND CMA_LAT CMA_LON CMA_CAT CMA_WIND CMA_PRES HKO_LAT HKO_LON HKO_CAT HKO_WIND HKO_PRES NEWDELHI_LAT NEWDELHI_LON NEWDELHI_GRADE NEWDELHI_WIND NEWDELHI_PRES NEWDELHI_CI NEWDELHI_DP NEWDELHI_POCI REUNION_LAT REUNION_LON REUNION_TYPE REUNION_WIND REUNION_PRES REUNION_TNUM REUNION_CI REUNION_RMW REUNION_R34_NE REUNION_R34_SE REUNION_R34_SW REUNION_R34_NW REUNION_R50_NE REUNION_R50_SE REUNION_R50_SW REUNION_R50_NW REUNION_R64_NE REUNION_R64_SE REUNION_R64_SW REUNION_R64_NW BOM_LAT BOM_LON BOM_TYPE BOM_WIND BOM_PRES BOM_TNUM BOM_CI BOM_RMW BOM_R34_NE BOM_R34_SE BOM_R34_SW BOM_R34_NW BOM_R50_NE BOM_R50_SE BOM_R50_SW BOM_R50_NW BOM_R64_NE BOM_R64_SE BOM_R64_SW BOM_R64_NW BOM_ROCI BOM_POCI BOM_EYE BOM_POS_METHOD BOM_PRES_METHOD NADI_LAT NADI_LON NADI_CAT NADI_WIND NADI_PRES WELLINGTON_LAT WELLINGTON_LON WELLINGTON_WIND WELLINGTON_PRES DS824_LAT DS824_LON DS824_STAGE DS824_WIND DS824_PRES TD9636_LAT TD9636_LON TD9636_STAGE TD9636_WIND TD9636_PRES TD9635_LAT TD9635_LON TD9635_WIND TD9635_PRES TD9635_ROCI NEUMANN_LAT NEUMANN_LON NEUMANN_CLASS NEUMANN_WIND NEUMANN_PRES MLC_LAT MLC_LON MLC_CLASS MLC_WIND MLC_PRES USA_GUST BOM_GUST BOM_GUST_PER REUNION_GUST REUNION_GUST_PER USA_SEAHGT USA_SEARAD_NE USA_SEARAD_SE USA_SEARAD_SW USA_SEARAD_NW STORM_SPEED STORM_DIR
1916248N17128 1916 45 WP MM NOT_NAMED 1916-09-03 22:00:00 NR 16.6000 127.800 main 473 464 __________O___ -1 16.6000 127.800 3 16 312
1916248N17128 1916 45 WP MM NOT_NAMED 1916-09-04 00:00:00 NR 16.9562 127.390 main 472 459 __________P___ -1 16.9562 127.390 3 16 311
1916248N17128 1916 45 WP MM NOT_NAMED 1916-09-04 03:00:00 NR 17.4751 126.766 main 460 397 __________P___ -1 17.4751 126.766 3 16 309
1916248N17128 1916 45 WP MM NOT_NAMED 1916-09-04 06:00:00 NR 17.9559 126.118 main 397 327 __________P___ -1 17.9559 126.118 3 16 306
1916248N17128 1916 45 WP MM NOT_NAMED 1916-09-04 09:00:00 NR 18.3768 125.437 main 327 306 __________P___ -1 18.3768 125.437 3 15 302
1916248N17128 1916 45 WP MM NOT_NAMED 1916-09-04 10:00:00 NR 18.5000 125.200 main 306 255 __________O___ -1 18.5000 125.200 4 15 296
1916248N17128 1916 45 WP MM NOT_NAMED 1916-09-04 12:00:00 NR 18.7173 124.712 main 255 191 __________P___ -1 18.7173 124.712 4 15 292
1916248N17128 1916 45 WP MM NOT_NAMED 1916-09-04 15:00:00 NR 18.9744 123.962 main 191 130 __________P___ -1 18.9744 123.962 4 15 287
1916248N17128 1916 45 WP MM NOT_NAMED 1916-09-04 18:00:00 NR 19.1568 123.219 main 130 98 __________P___ -1 19.1568 123.219 4 14 282
1916248N17128 1916 45 WP MM NOT_NAMED 1916-09-04 21:00:00 NR 19.2738 122.519 main 102 100 __________P___ -1 19.2738 122.519 4 13 279
1916248N17128 1916 45 WP MM NOT_NAMED 1916-09-04 22:00:00 NR 19.3000 122.300 main 100 100 __________O___ -1 19.3000 122.300 4 12 277
1916248N17128 1916 45 WP MM NOT_NAMED 1916-09-05 00:00:00 NR 19.3420 121.901 main 102 98 __________P___ -1 19.3420 121.901 4 11 274
1916248N17128 1916 45 WP MM NOT_NAMED 1916-09-05 03:00:00 NR 19.3554 121.353 main 100 78 __________P___ -1 19.3554 121.353 4 10 270
1916248N17128 1916 45 WP MM NOT_NAMED 1916-09-05 06:00:00 NR 19.3342 120.848 main 78 78 __________P___ -1 19.3342 120.848 4 9 267
1916248N17128 1916 45 WP MM NOT_NAMED 1916-09-05 09:00:00 NR 19.3061 120.362 main 88 94 __________P___ -1 19.3061 120.362 4 9 267
1916248N17128 1916 45 WP MM NOT_NAMED 1916-09-05 10:00:00 NR 19.3000 120.200 main 100 100 __________O___ -1 19.3000 120.200 4 10 271
1916248N17128 1916 45 WP MM NOT_NAMED 1916-09-05 12:00:00 NR 19.3108 119.848 main 131 131 __________P___ -1 19.3108 119.848 4 10 272
1916248N17128 1916 45 WP MM NOT_NAMED 1916-09-05 15:00:00 NR 19.3336 119.326 main 169 169 __________P___ -1 19.3336 119.326 4 10 273
1916248N17128 1916 45 WP MM NOT_NAMED 1916-09-05 18:00:00 NR 19.3612 118.822 main 219 219 __________P___ -1 19.3612 118.822 4 9 274
1916248N17128 1916 45 WP MM NOT_NAMED 1916-09-05 21:00:00 NR 19.3904 118.349 main 266 266 __________P___ -1 19.3904 118.349 4 9 274
1916248N17128 1916 45 WP MM NOT_NAMED 1916-09-05 22:00:00 NR 19.4000 118.200 main 276 276 __________O___ -1 19.4000 118.200 4 8 273
1916248N17128 1916 45 WP MM NOT_NAMED 1916-09-06 00:00:00 NR 19.4136 117.919 main 305 305 __________P___ -1 19.4136 117.919 4 8 273
1916248N17128 1916 45 WP MM NOT_NAMED 1916-09-06 03:00:00 NR 19.4343 117.528 main 344 344 __________P___ -1 19.4343 117.528 4 7 274
1916248N17128 1916 45 WP MM NOT_NAMED 1916-09-06 06:00:00 NR 19.4582 117.165 main 378 372 __________P___ -1 19.4582 117.165 4 7 275
1916248N17128 1916 45 WP MM NOT_NAMED 1916-09-06 09:00:00 NR 19.4881 116.815 main 372 369 __________P___ -1 19.4881 116.815 4 7 275
1916248N17128 1916 45 WP MM NOT_NAMED 1916-09-06 10:00:00 NR 19.5000 116.700 main 369 365 __________O___ -1 19.5000 116.700 4 7 277
1916248N17128 1916 45 WP MM NOT_NAMED 1916-09-06 12:00:00 NR 19.5274 116.464 main 365 347 __________P___ -1 19.5274 116.464 4 7 278
1916248N17128 1916 45 WP MM NOT_NAMED 1916-09-06 15:00:00 NR 19.5749 116.115 main 347 337 __________P___ -1 19.5749 116.115 4 7 279
1916248N17128 1916 45 WP MM NOT_NAMED 1916-09-06 18:00:00 NR 19.6275 115.769 main 337 312 __________P___ -1 19.6275 115.769 4 7 279
1916248N17128 1916 45 WP MM NOT_NAMED 1916-09-06 21:00:00 NR 19.6820 115.419 main 312 308 __________P___ -1 19.6820 115.419 4 7 279
1916248N17128 1916 45 WP MM NOT_NAMED 1916-09-06 22:00:00 NR 19.7000 115.300 main 308 302 __________O___ -1 19.7000 115.300 4 7 278
1916248N17128 1916 45 WP MM NOT_NAMED 1916-09-07 00:00:00 NR 19.7306 115.058 main 302 282 __________P___ -1 19.7306 115.058 4 7 278
1916248N17128 1916 45 WP MM NOT_NAMED 1916-09-07 03:00:00 NR 19.7764 114.689 main 282 270 __________P___ -1 19.7764 114.689 4 7 278
1916248N17128 1916 45 WP MM NOT_NAMED 1916-09-07 06:00:00 NR 19.8251 114.313 main 270 242 __________P___ -1 19.8251 114.313 4 7 278
1916248N17128 1916 45 WP MM NOT_NAMED 1916-09-07 09:00:00 NR 19.8799 113.930 main 242 238 __________P___ -1 19.8799 113.930 4 7 279
1916248N17128 1916 45 WP MM NOT_NAMED 1916-09-07 10:00:00 NR 19.9000 113.800 main 238 232 __________O___ -1 19.9000 113.800 4 7 281
1916248N17128 1916 45 WP MM NOT_NAMED 1916-09-07 12:00:00 NR 19.9465 113.555 main 232 210 __________P___ -1 19.9465 113.555 4 7 282
1916248N17128 1916 45 WP MM NOT_NAMED 1916-09-07 15:00:00 NR 20.0228 113.181 main 210 186 __________P___ -1 20.0228 113.181 4 7 282
1916248N17128 1916 45 WP MM NOT_NAMED 1916-09-07 18:00:00 NR 20.1016 112.786 main 186 160 __________P___ -1 20.1016 112.786 4 8 281
1916248N17128 1916 45 WP MM NOT_NAMED 1916-09-07 21:00:00 NR 20.1768 112.355 main 160 139 __________P___ -1 20.1768 112.355 4 8 280
1916248N17128 1916 45 WP MM NOT_NAMED 1916-09-07 22:00:00 NR 20.2000 112.200 main 139 109 __________O___ -1 20.2000 112.200 4 9 278
1916248N17128 1916 45 WP MM NOT_NAMED 1916-09-08 00:00:00 NR 20.2446 111.857 main 109 61 __________P___ -1 20.2446 111.857 4 10 277
1916248N17128 1916 45 WP MM NOT_NAMED 1916-09-08 03:00:00 NR 20.3051 111.305 main 61 23 __________P___ -1 20.3051 111.305 4 11 276
1916248N17128 1916 45 WP MM NOT_NAMED 1916-09-08 06:00:00 NR 20.3551 110.734 main 23 0 __________P___ -1 20.3551 110.734 4 11 275
1916248N17128 1916 45 WP MM NOT_NAMED 1916-09-08 09:00:00 NR 20.3914 110.177 main 0 0 __________P___ -1 20.3914 110.177 4 10 274
1916248N17128 1916 45 WP MM NOT_NAMED 1916-09-08 10:00:00 NR 20.4000 110.000 main 0 0 __________O___ -1 20.4000 110.000 4 10 272
1916248N17128 1916 45 WP MM NOT_NAMED 1916-09-08 12:00:00 NR 20.4118 109.663 main 15 23 __________P___ -1 20.4118 109.663 4 9 271
1916248N17128 1916 45 WP MM NOT_NAMED 1916-09-08 15:00:00 NR 20.4179 109.193 main 63 63 __________P___ -1 20.4179 109.193 4 8 270
1916248N17128 1916 45 WP MM NOT_NAMED 1916-09-08 18:00:00 NR 20.4140 108.756 main 85 91 __________P___ -1 20.4140 108.756 4 8 269
1916248N17128 1916 45 WP MM NOT_NAMED 1916-09-08 21:00:00 NR 20.4040 108.338 main 115 106 __________P___ -1 20.4040 108.338 4 8 268
1916248N17128 1916 45 WP MM NOT_NAMED 1916-09-08 22:00:00 NR 20.4000 108.200 main 106 __________O___ -1 20.4000 108.200 4 8 268

デジタル台風データ・検索

IBTrACS Databaseについて

本データベースは、米国NOAAが公開する1842年以降の世界の熱帯低気圧のベストトラックデータアーカイブInternational Best Track Archive for Climate Stewardship (IBTrACS)を、ウェブで閲覧しやすい形式に変換したものです。

最終更新日:2021-10-21